sensor_id;sensor_type;location;lat;lon;timestamp;P1;durP1;ratioP1;P2;durP2;ratioP2
28176;SDS011;15461;41.652;9.378;2023-07-02T00:01:44;8.90;;;2.78;;
28176;SDS011;15461;41.652;9.378;2023-07-02T00:04:11;8.95;;;2.65;;
28176;SDS011;15461;41.652;9.378;2023-07-02T00:06:41;6.03;;;2.42;;
28176;SDS011;15461;41.652;9.378;2023-07-02T00:09:13;7.00;;;3.00;;
28176;SDS011;15461;41.652;9.378;2023-07-02T00:11:41;9.05;;;2.92;;
28176;SDS011;15461;41.652;9.378;2023-07-02T00:14:08;6.22;;;2.13;;
28176;SDS011;15461;41.652;9.378;2023-07-02T00:16:39;8.05;;;2.40;;
28176;SDS011;15461;41.652;9.378;2023-07-02T00:19:08;6.60;;;2.17;;
28176;SDS011;15461;41.652;9.378;2023-07-02T00:21:34;6.15;;;2.53;;
28176;SDS011;15461;41.652;9.378;2023-07-02T00:24:02;8.98;;;2.60;;
28176;SDS011;15461;41.652;9.378;2023-07-02T00:26:28;5.65;;;2.38;;
28176;SDS011;15461;41.652;9.378;2023-07-02T00:28:54;10.73;;;2.10;;
28176;SDS011;15461;41.652;9.378;2023-07-02T00:31:21;7.22;;;2.20;;
28176;SDS011;15461;41.652;9.378;2023-07-02T00:33:48;6.63;;;2.70;;
28176;SDS011;15461;41.652;9.378;2023-07-02T00:36:14;7.55;;;2.70;;
28176;SDS011;15461;41.652;9.378;2023-07-02T00:38:41;8.30;;;2.47;;
28176;SDS011;15461;41.652;9.378;2023-07-02T00:41:08;8.65;;;2.60;;
28176;SDS011;15461;41.652;9.378;2023-07-02T00:43:34;7.90;;;2.85;;
28176;SDS011;15461;41.652;9.378;2023-07-02T00:46:00;7.43;;;2.65;;
28176;SDS011;15461;41.652;9.378;2023-07-02T00:48:26;10.20;;;2.88;;
28176;SDS011;15461;41.652;9.378;2023-07-02T00:50:52;10.52;;;2.60;;
28176;SDS011;15461;41.652;9.378;2023-07-02T00:53:18;12.63;;;2.90;;
28176;SDS011;15461;41.652;9.378;2023-07-02T00:55:43;10.30;;;2.80;;
28176;SDS011;15461;41.652;9.378;2023-07-02T00:58:09;9.60;;;2.40;;
28176;SDS011;15461;41.652;9.378;2023-07-02T01:00:37;9.43;;;3.00;;
28176;SDS011;15461;41.652;9.378;2023-07-02T01:03:03;9.10;;;2.50;;
28176;SDS011;15461;41.652;9.378;2023-07-02T01:05:29;9.93;;;3.10;;
28176;SDS011;15461;41.652;9.378;2023-07-02T01:08:04;11.43;;;3.00;;
28176;SDS011;15461;41.652;9.378;2023-07-02T01:10:30;7.15;;;2.67;;
28176;SDS011;15461;41.652;9.378;2023-07-02T01:13:08;11.00;;;2.88;;
28176;SDS011;15461;41.652;9.378;2023-07-02T01:15:39;6.95;;;2.50;;
28176;SDS011;15461;41.652;9.378;2023-07-02T01:18:06;10.68;;;2.92;;
28176;SDS011;15461;41.652;9.378;2023-07-02T01:20:33;12.68;;;2.78;;
28176;SDS011;15461;41.652;9.378;2023-07-02T01:23:00;9.98;;;2.55;;
28176;SDS011;15461;41.652;9.378;2023-07-02T01:25:28;7.95;;;2.47;;
28176;SDS011;15461;41.652;9.378;2023-07-02T01:27:55;9.60;;;2.53;;
28176;SDS011;15461;41.652;9.378;2023-07-02T01:30:23;18.58;;;3.05;;
28176;SDS011;15461;41.652;9.378;2023-07-02T01:32:51;12.77;;;2.53;;
28176;SDS011;15461;41.652;9.378;2023-07-02T01:35:17;12.10;;;2.60;;
28176;SDS011;15461;41.652;9.378;2023-07-02T01:37:43;13.88;;;2.83;;
28176;SDS011;15461;41.652;9.378;2023-07-02T01:40:09;6.53;;;2.20;;
28176;SDS011;15461;41.652;9.378;2023-07-02T01:42:36;6.70;;;2.50;;
28176;SDS011;15461;41.652;9.378;2023-07-02T01:45:02;9.45;;;2.97;;
28176;SDS011;15461;41.652;9.378;2023-07-02T01:47:28;10.43;;;2.75;;
28176;SDS011;15461;41.652;9.378;2023-07-02T01:49:54;8.45;;;2.60;;
28176;SDS011;15461;41.652;9.378;2023-07-02T01:52:20;7.85;;;2.40;;
28176;SDS011;15461;41.652;9.378;2023-07-02T01:54:46;8.32;;;2.25;;
28176;SDS011;15461;41.652;9.378;2023-07-02T01:57:12;16.50;;;3.25;;
28176;SDS011;15461;41.652;9.378;2023-07-02T01:59:37;14.15;;;3.42;;
28176;SDS011;15461;41.652;9.378;2023-07-02T02:02:03;9.65;;;2.47;;
28176;SDS011;15461;41.652;9.378;2023-07-02T02:04:29;14.15;;;2.80;;
28176;SDS011;15461;41.652;9.378;2023-07-02T02:06:55;10.65;;;3.38;;
28176;SDS011;15461;41.652;9.378;2023-07-02T02:09:21;10.82;;;2.70;;
28176;SDS011;15461;41.652;9.378;2023-07-02T02:11:50;11.63;;;3.13;;
28176;SDS011;15461;41.652;9.378;2023-07-02T02:14:18;10.95;;;2.70;;
28176;SDS011;15461;41.652;9.378;2023-07-02T02:16:43;7.75;;;3.17;;
28176;SDS011;15461;41.652;9.378;2023-07-02T02:19:12;10.05;;;2.40;;
28176;SDS011;15461;41.652;9.378;2023-07-02T02:21:42;9.10;;;2.97;;
28176;SDS011;15461;41.652;9.378;2023-07-02T02:24:08;6.32;;;2.47;;
28176;SDS011;15461;41.652;9.378;2023-07-02T02:26:34;11.30;;;2.85;;
28176;SDS011;15461;41.652;9.378;2023-07-02T02:29:02;9.75;;;2.60;;
28176;SDS011;15461;41.652;9.378;2023-07-02T02:31:28;16.80;;;2.95;;
28176;SDS011;15461;41.652;9.378;2023-07-02T02:33:54;9.63;;;2.78;;
28176;SDS011;15461;41.652;9.378;2023-07-02T02:36:20;12.68;;;3.15;;
28176;SDS011;15461;41.652;9.378;2023-07-02T02:38:46;10.13;;;2.75;;
28176;SDS011;15461;41.652;9.378;2023-07-02T02:41:12;9.95;;;2.85;;
28176;SDS011;15461;41.652;9.378;2023-07-02T02:43:43;11.48;;;2.60;;
28176;SDS011;15461;41.652;9.378;2023-07-02T02:46:11;9.77;;;2.55;;
28176;SDS011;15461;41.652;9.378;2023-07-02T02:48:37;11.05;;;3.10;;
28176;SDS011;15461;41.652;9.378;2023-07-02T02:51:04;11.30;;;3.75;;
28176;SDS011;15461;41.652;9.378;2023-07-02T02:53:30;11.95;;;2.72;;
28176;SDS011;15461;41.652;9.378;2023-07-02T02:55:56;7.45;;;2.20;;
28176;SDS011;15461;41.652;9.378;2023-07-02T02:58:21;12.07;;;3.10;;
28176;SDS011;15461;41.652;9.378;2023-07-02T03:00:48;10.05;;;3.35;;
28176;SDS011;15461;41.652;9.378;2023-07-02T03:03:14;9.35;;;2.60;;
28176;SDS011;15461;41.652;9.378;2023-07-02T03:05:42;17.52;;;3.38;;
28176;SDS011;15461;41.652;9.378;2023-07-02T03:08:09;8.82;;;2.67;;
28176;SDS011;15461;41.652;9.378;2023-07-02T03:10:35;6.60;;;2.30;;
28176;SDS011;15461;41.652;9.378;2023-07-02T03:13:01;9.63;;;2.78;;
28176;SDS011;15461;41.652;9.378;2023-07-02T03:15:27;17.38;;;3.38;;
28176;SDS011;15461;41.652;9.378;2023-07-02T03:17:53;13.75;;;3.60;;
28176;SDS011;15461;41.652;9.378;2023-07-02T03:20:19;16.08;;;3.53;;
28176;SDS011;15461;41.652;9.378;2023-07-02T03:22:45;15.50;;;3.33;;
28176;SDS011;15461;41.652;9.378;2023-07-02T03:25:11;17.55;;;3.72;;
28176;SDS011;15461;41.652;9.378;2023-07-02T03:27:37;14.23;;;3.78;;
28176;SDS011;15461;41.652;9.378;2023-07-02T03:30:02;15.13;;;3.35;;
28176;SDS011;15461;41.652;9.378;2023-07-02T03:32:29;21.95;;;4.13;;
28176;SDS011;15461;41.652;9.378;2023-07-02T03:34:54;16.20;;;3.30;;
28176;SDS011;15461;41.652;9.378;2023-07-02T03:37:20;16.35;;;3.63;;
28176;SDS011;15461;41.652;9.378;2023-07-02T03:39:46;14.30;;;3.42;;
28176;SDS011;15461;41.652;9.378;2023-07-02T03:42:12;16.67;;;3.25;;
28176;SDS011;15461;41.652;9.378;2023-07-02T03:44:38;13.55;;;4.00;;
28176;SDS011;15461;41.652;9.378;2023-07-02T03:47:04;20.45;;;4.10;;
28176;SDS011;15461;41.652;9.378;2023-07-02T03:49:30;15.60;;;3.92;;
28176;SDS011;15461;41.652;9.378;2023-07-02T03:51:56;17.42;;;3.70;;
28176;SDS011;15461;41.652;9.378;2023-07-02T03:54:21;21.40;;;3.90;;
28176;SDS011;15461;41.652;9.378;2023-07-02T03:56:47;9.50;;;2.78;;
28176;SDS011;15461;41.652;9.378;2023-07-02T03:59:13;18.20;;;3.63;;
28176;SDS011;15461;41.652;9.378;2023-07-02T04:01:39;15.55;;;3.63;;
28176;SDS011;15461;41.652;9.378;2023-07-02T04:04:05;15.32;;;3.22;;
28176;SDS011;15461;41.652;9.378;2023-07-02T04:06:31;19.90;;;3.67;;
28176;SDS011;15461;41.652;9.378;2023-07-02T04:08:59;12.50;;;3.08;;
28176;SDS011;15461;41.652;9.378;2023-07-02T04:11:25;12.63;;;3.20;;
28176;SDS011;15461;41.652;9.378;2023-07-02T04:13:50;14.73;;;3.25;;
28176;SDS011;15461;41.652;9.378;2023-07-02T04:16:17;8.43;;;2.97;;
28176;SDS011;15461;41.652;9.378;2023-07-02T04:18:43;13.80;;;3.80;;
28176;SDS011;15461;41.652;9.378;2023-07-02T04:21:08;16.80;;;3.85;;
28176;SDS011;15461;41.652;9.378;2023-07-02T04:23:34;15.77;;;3.30;;
28176;SDS011;15461;41.652;9.378;2023-07-02T04:26:00;14.98;;;3.53;;
28176;SDS011;15461;41.652;9.378;2023-07-02T04:28:26;13.93;;;3.50;;
28176;SDS011;15461;41.652;9.378;2023-07-02T04:30:52;24.90;;;4.43;;
28176;SDS011;15461;41.652;9.378;2023-07-02T04:33:18;26.05;;;3.17;;
28176;SDS011;15461;41.652;9.378;2023-07-02T04:35:44;21.00;;;3.75;;
28176;SDS011;15461;41.652;9.378;2023-07-02T04:38:10;16.85;;;3.38;;
28176;SDS011;15461;41.652;9.378;2023-07-02T04:40:37;20.98;;;4.05;;
28176;SDS011;15461;41.652;9.378;2023-07-02T04:43:03;17.02;;;3.42;;
28176;SDS011;15461;41.652;9.378;2023-07-02T04:45:30;16.75;;;3.53;;
28176;SDS011;15461;41.652;9.378;2023-07-02T04:48:02;18.15;;;4.13;;
28176;SDS011;15461;41.652;9.378;2023-07-02T04:50:28;15.40;;;3.35;;
28176;SDS011;15461;41.652;9.378;2023-07-02T04:52:54;14.68;;;3.22;;
28176;SDS011;15461;41.652;9.378;2023-07-02T04:55:20;14.70;;;3.75;;
28176;SDS011;15461;41.652;9.378;2023-07-02T04:57:46;16.20;;;3.90;;
28176;SDS011;15461;41.652;9.378;2023-07-02T05:00:12;18.80;;;3.65;;
28176;SDS011;15461;41.652;9.378;2023-07-02T05:02:39;13.10;;;3.55;;
28176;SDS011;15461;41.652;9.378;2023-07-02T05:05:06;17.13;;;4.03;;
28176;SDS011;15461;41.652;9.378;2023-07-02T05:07:32;20.75;;;3.90;;
28176;SDS011;15461;41.652;9.378;2023-07-02T05:09:58;25.20;;;4.60;;
28176;SDS011;15461;41.652;9.378;2023-07-02T05:12:24;17.73;;;3.97;;
28176;SDS011;15461;41.652;9.378;2023-07-02T05:14:49;21.73;;;4.18;;
28176;SDS011;15461;41.652;9.378;2023-07-02T05:17:15;15.88;;;4.22;;
28176;SDS011;15461;41.652;9.378;2023-07-02T05:19:41;27.00;;;4.20;;
28176;SDS011;15461;41.652;9.378;2023-07-02T05:22:10;16.85;;;4.38;;
28176;SDS011;15461;41.652;9.378;2023-07-02T05:24:36;16.33;;;3.65;;
28176;SDS011;15461;41.652;9.378;2023-07-02T05:27:02;19.10;;;3.85;;
28176;SDS011;15461;41.652;9.378;2023-07-02T05:29:29;22.70;;;3.50;;
28176;SDS011;15461;41.652;9.378;2023-07-02T05:31:55;18.58;;;3.55;;
28176;SDS011;15461;41.652;9.378;2023-07-02T05:34:20;16.80;;;3.72;;
28176;SDS011;15461;41.652;9.378;2023-07-02T05:36:47;17.48;;;3.50;;
28176;SDS011;15461;41.652;9.378;2023-07-02T05:39:12;18.10;;;3.97;;
28176;SDS011;15461;41.652;9.378;2023-07-02T05:41:38;16.60;;;3.60;;
28176;SDS011;15461;41.652;9.378;2023-07-02T05:44:04;17.90;;;3.30;;
28176;SDS011;15461;41.652;9.378;2023-07-02T05:46:30;18.83;;;3.25;;
28176;SDS011;15461;41.652;9.378;2023-07-02T05:48:56;14.55;;;3.40;;
28176;SDS011;15461;41.652;9.378;2023-07-02T05:51:25;14.25;;;4.05;;
28176;SDS011;15461;41.652;9.378;2023-07-02T05:53:51;13.25;;;3.00;;
28176;SDS011;15461;41.652;9.378;2023-07-02T05:56:17;15.27;;;3.75;;
28176;SDS011;15461;41.652;9.378;2023-07-02T05:58:45;19.85;;;3.75;;
28176;SDS011;15461;41.652;9.378;2023-07-02T06:01:11;16.65;;;3.40;;
28176;SDS011;15461;41.652;9.378;2023-07-02T06:03:37;9.18;;;3.30;;
28176;SDS011;15461;41.652;9.378;2023-07-02T06:06:03;10.55;;;3.50;;
28176;SDS011;15461;41.652;9.378;2023-07-02T06:08:29;12.05;;;3.58;;
28176;SDS011;15461;41.652;9.378;2023-07-02T06:10:55;15.43;;;4.13;;
28176;SDS011;15461;41.652;9.378;2023-07-02T06:13:21;10.77;;;3.53;;
28176;SDS011;15461;41.652;9.378;2023-07-02T06:15:46;7.60;;;3.15;;
28176;SDS011;15461;41.652;9.378;2023-07-02T06:18:12;9.60;;;3.42;;
28176;SDS011;15461;41.652;9.378;2023-07-02T06:20:39;9.95;;;3.50;;
28176;SDS011;15461;41.652;9.378;2023-07-02T06:23:04;11.07;;;3.58;;
28176;SDS011;15461;41.652;9.378;2023-07-02T06:25:30;9.30;;;3.58;;
28176;SDS011;15461;41.652;9.378;2023-07-02T06:27:56;8.80;;;3.50;;
28176;SDS011;15461;41.652;9.378;2023-07-02T06:30:25;8.50;;;3.40;;
28176;SDS011;15461;41.652;9.378;2023-07-02T06:32:51;10.93;;;3.67;;
28176;SDS011;15461;41.652;9.378;2023-07-02T06:35:18;9.63;;;3.58;;
28176;SDS011;15461;41.652;9.378;2023-07-02T06:37:44;7.07;;;3.65;;
28176;SDS011;15461;41.652;9.378;2023-07-02T06:40:11;11.55;;;3.90;;
28176;SDS011;15461;41.652;9.378;2023-07-02T06:42:37;6.65;;;2.85;;
28176;SDS011;15461;41.652;9.378;2023-07-02T06:45:03;8.95;;;3.30;;
28176;SDS011;15461;41.652;9.378;2023-07-02T06:47:29;9.82;;;3.80;;
28176;SDS011;15461;41.652;9.378;2023-07-02T06:49:55;9.45;;;3.47;;
28176;SDS011;15461;41.652;9.378;2023-07-02T06:52:21;8.73;;;3.28;;
28176;SDS011;15461;41.652;9.378;2023-07-02T06:54:47;11.13;;;3.33;;
28176;SDS011;15461;41.652;9.378;2023-07-02T06:57:13;8.15;;;3.00;;
28176;SDS011;15461;41.652;9.378;2023-07-02T06:59:39;15.30;;;3.72;;
28176;SDS011;15461;41.652;9.378;2023-07-02T07:02:05;14.52;;;3.55;;
28176;SDS011;15461;41.652;9.378;2023-07-02T07:04:31;10.77;;;3.55;;
28176;SDS011;15461;41.652;9.378;2023-07-02T07:06:57;8.98;;;3.40;;
28176;SDS011;15461;41.652;9.378;2023-07-02T07:09:23;10.25;;;3.45;;
28176;SDS011;15461;41.652;9.378;2023-07-02T07:11:50;6.82;;;3.13;;
28176;SDS011;15461;41.652;9.378;2023-07-02T07:14:16;8.65;;;3.17;;
28176;SDS011;15461;41.652;9.378;2023-07-02T07:16:42;10.60;;;3.58;;
28176;SDS011;15461;41.652;9.378;2023-07-02T07:19:08;10.75;;;3.50;;
28176;SDS011;15461;41.652;9.378;2023-07-02T07:21:34;10.77;;;3.90;;
28176;SDS011;15461;41.652;9.378;2023-07-02T07:24:00;8.77;;;3.40;;
28176;SDS011;15461;41.652;9.378;2023-07-02T07:26:26;8.15;;;3.60;;
28176;SDS011;15461;41.652;9.378;2023-07-02T07:28:52;13.88;;;3.50;;
28176;SDS011;15461;41.652;9.378;2023-07-02T07:31:19;11.43;;;3.78;;
28176;SDS011;15461;41.652;9.378;2023-07-02T07:33:45;12.60;;;3.42;;
28176;SDS011;15461;41.652;9.378;2023-07-02T07:36:11;10.63;;;3.55;;
28176;SDS011;15461;41.652;9.378;2023-07-02T07:38:37;10.38;;;3.40;;
28176;SDS011;15461;41.652;9.378;2023-07-02T07:41:03;9.98;;;3.55;;
28176;SDS011;15461;41.652;9.378;2023-07-02T07:43:29;8.15;;;3.53;;
28176;SDS011;15461;41.652;9.378;2023-07-02T07:45:55;9.13;;;3.42;;
28176;SDS011;15461;41.652;9.378;2023-07-02T07:48:20;10.52;;;3.30;;
28176;SDS011;15461;41.652;9.378;2023-07-02T07:50:46;8.50;;;3.63;;
28176;SDS011;15461;41.652;9.378;2023-07-02T07:53:12;6.75;;;3.40;;
28176;SDS011;15461;41.652;9.378;2023-07-02T07:55:38;6.28;;;3.25;;
28176;SDS011;15461;41.652;9.378;2023-07-02T07:58:04;10.18;;;3.22;;
28176;SDS011;15461;41.652;9.378;2023-07-02T08:00:30;9.88;;;3.22;;
28176;SDS011;15461;41.652;9.378;2023-07-02T08:02:56;11.82;;;3.38;;
28176;SDS011;15461;41.652;9.378;2023-07-02T08:05:21;9.13;;;3.38;;
28176;SDS011;15461;41.652;9.378;2023-07-02T08:07:48;9.43;;;3.47;;
28176;SDS011;15461;41.652;9.378;2023-07-02T08:10:14;9.18;;;3.03;;
28176;SDS011;15461;41.652;9.378;2023-07-02T08:12:40;7.85;;;3.78;;
28176;SDS011;15461;41.652;9.378;2023-07-02T08:15:06;12.10;;;3.47;;
28176;SDS011;15461;41.652;9.378;2023-07-02T08:17:35;9.55;;;3.47;;
28176;SDS011;15461;41.652;9.378;2023-07-02T08:20:01;9.82;;;3.67;;
28176;SDS011;15461;41.652;9.378;2023-07-02T08:22:27;8.60;;;3.60;;
28176;SDS011;15461;41.652;9.378;2023-07-02T08:24:53;12.30;;;3.53;;
28176;SDS011;15461;41.652;9.378;2023-07-02T08:27:19;11.70;;;4.28;;
28176;SDS011;15461;41.652;9.378;2023-07-02T08:29:46;10.35;;;3.30;;
28176;SDS011;15461;41.652;9.378;2023-07-02T08:32:12;10.57;;;4.22;;
28176;SDS011;15461;41.652;9.378;2023-07-02T08:34:38;10.35;;;3.40;;
28176;SDS011;15461;41.652;9.378;2023-07-02T08:37:04;8.88;;;3.13;;
28176;SDS011;15461;41.652;9.378;2023-07-02T08:39:30;10.90;;;2.90;;
28176;SDS011;15461;41.652;9.378;2023-07-02T08:41:56;9.85;;;3.53;;
28176;SDS011;15461;41.652;9.378;2023-07-02T08:44:22;9.90;;;3.70;;
28176;SDS011;15461;41.652;9.378;2023-07-02T08:46:49;8.38;;;3.30;;
28176;SDS011;15461;41.652;9.378;2023-07-02T08:49:21;10.13;;;3.83;;
28176;SDS011;15461;41.652;9.378;2023-07-02T08:51:47;7.78;;;3.55;;
28176;SDS011;15461;41.652;9.378;2023-07-02T08:54:13;9.70;;;3.28;;
28176;SDS011;15461;41.652;9.378;2023-07-02T08:56:40;12.25;;;3.50;;
28176;SDS011;15461;41.652;9.378;2023-07-02T08:59:09;9.40;;;3.95;;
28176;SDS011;15461;41.652;9.378;2023-07-02T09:01:45;11.13;;;3.40;;
28176;SDS011;15461;41.652;9.378;2023-07-02T09:04:18;9.55;;;3.65;;
28176;SDS011;15461;41.652;9.378;2023-07-02T09:07:04;9.35;;;3.58;;
28176;SDS011;15461;41.652;9.378;2023-07-02T09:09:32;8.40;;;3.47;;
28176;SDS011;15461;41.652;9.378;2023-07-02T09:11:58;10.63;;;3.67;;
28176;SDS011;15461;41.652;9.378;2023-07-02T09:14:25;7.35;;;3.53;;
28176;SDS011;15461;41.652;9.378;2023-07-02T09:17:00;8.25;;;3.40;;
28176;SDS011;15461;41.652;9.378;2023-07-02T09:19:30;8.73;;;3.30;;
28176;SDS011;15461;41.652;9.378;2023-07-02T09:21:57;10.40;;;3.72;;
28176;SDS011;15461;41.652;9.378;2023-07-02T09:24:28;8.32;;;3.72;;
28176;SDS011;15461;41.652;9.378;2023-07-02T09:26:56;9.57;;;3.70;;
28176;SDS011;15461;41.652;9.378;2023-07-02T09:29:26;8.32;;;3.40;;
28176;SDS011;15461;41.652;9.378;2023-07-02T09:31:57;9.18;;;3.80;;
28176;SDS011;15461;41.652;9.378;2023-07-02T09:34:29;8.52;;;3.53;;
28176;SDS011;15461;41.652;9.378;2023-07-02T09:36:59;7.70;;;3.25;;
28176;SDS011;15461;41.652;9.378;2023-07-02T09:39:29;6.45;;;3.60;;
28176;SDS011;15461;41.652;9.378;2023-07-02T09:41:57;13.02;;;3.67;;
28176;SDS011;15461;41.652;9.378;2023-07-02T09:49:33;11.25;;;4.15;;
28176;SDS011;15461;41.652;9.378;2023-07-02T09:52:01;11.02;;;3.30;;
28176;SDS011;15461;41.652;9.378;2023-07-02T09:54:29;8.93;;;3.63;;
28176;SDS011;15461;41.652;9.378;2023-07-02T09:56:56;9.38;;;3.67;;
28176;SDS011;15461;41.652;9.378;2023-07-02T09:59:22;11.27;;;3.45;;
28176;SDS011;15461;41.652;9.378;2023-07-02T10:01:49;8.25;;;3.60;;
28176;SDS011;15461;41.652;9.378;2023-07-02T10:04:16;11.30;;;3.60;;
28176;SDS011;15461;41.652;9.378;2023-07-02T10:06:44;11.40;;;3.30;;
28176;SDS011;15461;41.652;9.378;2023-07-02T10:09:11;9.43;;;3.70;;
28176;SDS011;15461;41.652;9.378;2023-07-02T10:11:37;9.82;;;3.55;;
28176;SDS011;15461;41.652;9.378;2023-07-02T10:14:03;9.00;;;3.55;;
28176;SDS011;15461;41.652;9.378;2023-07-02T10:16:28;9.75;;;3.72;;
28176;SDS011;15461;41.652;9.378;2023-07-02T10:19:11;9.40;;;3.50;;
28176;SDS011;15461;41.652;9.378;2023-07-02T10:21:38;6.90;;;3.15;;
28176;SDS011;15461;41.652;9.378;2023-07-02T10:24:10;9.82;;;3.10;;
28176;SDS011;15461;41.652;9.378;2023-07-02T10:26:37;10.13;;;3.53;;
28176;SDS011;15461;41.652;9.378;2023-07-02T10:29:03;9.05;;;3.47;;
28176;SDS011;15461;41.652;9.378;2023-07-02T10:31:29;8.45;;;3.58;;
28176;SDS011;15461;41.652;9.378;2023-07-02T10:33:55;7.63;;;3.20;;
28176;SDS011;15461;41.652;9.378;2023-07-02T10:36:21;9.20;;;3.60;;
28176;SDS011;15461;41.652;9.378;2023-07-02T10:38:51;8.65;;;3.80;;
28176;SDS011;15461;41.652;9.378;2023-07-02T10:41:27;8.55;;;3.67;;
28176;SDS011;15461;41.652;9.378;2023-07-02T10:43:54;8.02;;;3.45;;
28176;SDS011;15461;41.652;9.378;2023-07-02T10:46:34;7.28;;;3.65;;
28176;SDS011;15461;41.652;9.378;2023-07-02T10:49:07;11.13;;;3.75;;
28176;SDS011;15461;41.652;9.378;2023-07-02T10:51:34;6.63;;;3.35;;
28176;SDS011;15461;41.652;9.378;2023-07-02T10:54:00;8.15;;;3.38;;
28176;SDS011;15461;41.652;9.378;2023-07-02T10:56:27;9.77;;;3.70;;
28176;SDS011;15461;41.652;9.378;2023-07-02T10:58:54;8.07;;;3.50;;
28176;SDS011;15461;41.652;9.378;2023-07-02T11:01:26;9.98;;;3.97;;
28176;SDS011;15461;41.652;9.378;2023-07-02T11:03:57;9.48;;;3.75;;
28176;SDS011;15461;41.652;9.378;2023-07-02T11:06:25;8.93;;;3.63;;
28176;SDS011;15461;41.652;9.378;2023-07-02T11:08:55;12.60;;;4.07;;
28176;SDS011;15461;41.652;9.378;2023-07-02T11:11:21;12.52;;;4.18;;
28176;SDS011;15461;41.652;9.378;2023-07-02T11:13:48;7.00;;;3.35;;
28176;SDS011;15461;41.652;9.378;2023-07-02T11:16:18;9.55;;;4.07;;
28176;SDS011;15461;41.652;9.378;2023-07-02T11:18:45;8.93;;;3.42;;
28176;SDS011;15461;41.652;9.378;2023-07-02T11:21:11;9.45;;;3.42;;
28176;SDS011;15461;41.652;9.378;2023-07-02T11:23:37;10.43;;;3.75;;
28176;SDS011;15461;41.652;9.378;2023-07-02T11:26:03;6.90;;;3.05;;
28176;SDS011;15461;41.652;9.378;2023-07-02T11:28:30;9.05;;;3.70;;
28176;SDS011;15461;41.652;9.378;2023-07-02T11:30:57;8.65;;;3.20;;
28176;SDS011;15461;41.652;9.378;2023-07-02T11:33:36;11.27;;;3.45;;
28176;SDS011;15461;41.652;9.378;2023-07-02T11:36:03;7.78;;;3.28;;
28176;SDS011;15461;41.652;9.378;2023-07-02T11:38:30;7.93;;;3.45;;
28176;SDS011;15461;41.652;9.378;2023-07-02T11:40:56;9.43;;;3.30;;
28176;SDS011;15461;41.652;9.378;2023-07-02T11:43:22;7.53;;;3.42;;
28176;SDS011;15461;41.652;9.378;2023-07-02T11:45:48;8.07;;;3.70;;
28176;SDS011;15461;41.652;9.378;2023-07-02T11:48:13;5.43;;;3.40;;
28176;SDS011;15461;41.652;9.378;2023-07-02T11:50:39;7.03;;;3.22;;
28176;SDS011;15461;41.652;9.378;2023-07-02T11:53:05;8.35;;;3.10;;
28176;SDS011;15461;41.652;9.378;2023-07-02T11:55:31;6.32;;;3.30;;
28176;SDS011;15461;41.652;9.378;2023-07-02T11:57:58;8.32;;;3.10;;
28176;SDS011;15461;41.652;9.378;2023-07-02T12:00:24;7.32;;;3.72;;
28176;SDS011;15461;41.652;9.378;2023-07-02T12:02:50;8.80;;;3.63;;
28176;SDS011;15461;41.652;9.378;2023-07-02T12:05:16;11.65;;;3.80;;
28176;SDS011;15461;41.652;9.378;2023-07-02T12:07:42;7.22;;;2.80;;
28176;SDS011;15461;41.652;9.378;2023-07-02T12:10:08;8.07;;;3.28;;
28176;SDS011;15461;41.652;9.378;2023-07-02T12:12:34;9.90;;;3.75;;
28176;SDS011;15461;41.652;9.378;2023-07-02T12:15:00;7.18;;;3.50;;
28176;SDS011;15461;41.652;9.378;2023-07-02T12:17:25;7.70;;;3.55;;
28176;SDS011;15461;41.652;9.378;2023-07-02T12:19:51;9.82;;;3.17;;
28176;SDS011;15461;41.652;9.378;2023-07-02T12:22:17;7.70;;;3.15;;
28176;SDS011;15461;41.652;9.378;2023-07-02T12:24:43;5.28;;;3.15;;
28176;SDS011;15461;41.652;9.378;2023-07-02T12:27:09;8.43;;;3.40;;
28176;SDS011;15461;41.652;9.378;2023-07-02T12:29:38;6.90;;;3.25;;
28176;SDS011;15461;41.652;9.378;2023-07-02T12:32:04;5.60;;;3.25;;
28176;SDS011;15461;41.652;9.378;2023-07-02T12:34:31;7.60;;;3.28;;
28176;SDS011;15461;41.652;9.378;2023-07-02T12:36:57;7.43;;;3.20;;
28176;SDS011;15461;41.652;9.378;2023-07-02T12:39:23;12.32;;;3.95;;
28176;SDS011;15461;41.652;9.378;2023-07-02T12:41:48;9.70;;;3.58;;
28176;SDS011;15461;41.652;9.378;2023-07-02T12:44:14;7.78;;;3.53;;
28176;SDS011;15461;41.652;9.378;2023-07-02T12:46:41;7.03;;;3.33;;
28176;SDS011;15461;41.652;9.378;2023-07-02T12:49:06;10.70;;;3.50;;
28176;SDS011;15461;41.652;9.378;2023-07-02T12:51:32;5.72;;;3.03;;
28176;SDS011;15461;41.652;9.378;2023-07-02T12:53:58;8.18;;;3.10;;
28176;SDS011;15461;41.652;9.378;2023-07-02T12:56:24;7.10;;;3.20;;
28176;SDS011;15461;41.652;9.378;2023-07-02T12:58:50;8.48;;;3.10;;
28176;SDS011;15461;41.652;9.378;2023-07-02T13:01:16;8.18;;;3.50;;
28176;SDS011;15461;41.652;9.378;2023-07-02T13:03:46;6.70;;;2.92;;
28176;SDS011;15461;41.652;9.378;2023-07-02T13:06:12;10.80;;;3.60;;
28176;SDS011;15461;41.652;9.378;2023-07-02T13:08:39;7.50;;;3.30;;
28176;SDS011;15461;41.652;9.378;2023-07-02T13:11:05;7.43;;;3.60;;
28176;SDS011;15461;41.652;9.378;2023-07-02T13:13:30;9.85;;;3.50;;
28176;SDS011;15461;41.652;9.378;2023-07-02T13:15:56;7.68;;;3.08;;
28176;SDS011;15461;41.652;9.378;2023-07-02T13:18:22;8.80;;;3.58;;
28176;SDS011;15461;41.652;9.378;2023-07-02T13:20:48;9.30;;;3.80;;
28176;SDS011;15461;41.652;9.378;2023-07-02T13:23:14;8.57;;;3.40;;
28176;SDS011;15461;41.652;9.378;2023-07-02T13:25:40;8.00;;;3.88;;
28176;SDS011;15461;41.652;9.378;2023-07-02T13:28:06;9.98;;;3.80;;
28176;SDS011;15461;41.652;9.378;2023-07-02T13:30:32;11.35;;;4.22;;
28176;SDS011;15461;41.652;9.378;2023-07-02T13:32:57;8.60;;;3.90;;
28176;SDS011;15461;41.652;9.378;2023-07-02T13:35:23;8.05;;;3.92;;
28176;SDS011;15461;41.652;9.378;2023-07-02T13:37:49;9.32;;;3.35;;
28176;SDS011;15461;41.652;9.378;2023-07-02T13:40:15;8.43;;;3.90;;
28176;SDS011;15461;41.652;9.378;2023-07-02T13:42:41;8.32;;;3.58;;
28176;SDS011;15461;41.652;9.378;2023-07-02T13:45:08;8.77;;;3.40;;
28176;SDS011;15461;41.652;9.378;2023-07-02T13:47:34;5.95;;;3.53;;
28176;SDS011;15461;41.652;9.378;2023-07-02T13:50:02;9.07;;;3.15;;
28176;SDS011;15461;41.652;9.378;2023-07-02T13:52:29;10.45;;;3.72;;
28176;SDS011;15461;41.652;9.378;2023-07-02T13:54:55;7.05;;;3.40;;
28176;SDS011;15461;41.652;9.378;2023-07-02T13:57:21;9.30;;;3.20;;
28176;SDS011;15461;41.652;9.378;2023-07-02T13:59:47;7.32;;;3.13;;
28176;SDS011;15461;41.652;9.378;2023-07-02T14:02:13;9.27;;;3.70;;
28176;SDS011;15461;41.652;9.378;2023-07-02T14:04:39;7.80;;;3.25;;
28176;SDS011;15461;41.652;9.378;2023-07-02T14:07:04;9.68;;;3.65;;
28176;SDS011;15461;41.652;9.378;2023-07-02T14:09:30;11.50;;;3.20;;
28176;SDS011;15461;41.652;9.378;2023-07-02T14:11:56;6.72;;;3.13;;
28176;SDS011;15461;41.652;9.378;2023-07-02T14:14:22;7.50;;;3.40;;
28176;SDS011;15461;41.652;9.378;2023-07-02T14:16:48;9.63;;;3.63;;
28176;SDS011;15461;41.652;9.378;2023-07-02T14:19:14;8.93;;;3.33;;
28176;SDS011;15461;41.652;9.378;2023-07-02T14:21:42;7.55;;;4.30;;
28176;SDS011;15461;41.652;9.378;2023-07-02T14:24:08;7.65;;;3.10;;
28176;SDS011;15461;41.652;9.378;2023-07-02T14:26:34;7.35;;;3.50;;
28176;SDS011;15461;41.652;9.378;2023-07-02T14:29:00;6.68;;;2.97;;
28176;SDS011;15461;41.652;9.378;2023-07-02T14:31:26;12.02;;;3.85;;
28176;SDS011;15461;41.652;9.378;2023-07-02T14:33:52;9.98;;;3.50;;
28176;SDS011;15461;41.652;9.378;2023-07-02T14:36:18;9.55;;;3.65;;
28176;SDS011;15461;41.652;9.378;2023-07-02T14:38:45;8.30;;;3.45;;
28176;SDS011;15461;41.652;9.378;2023-07-02T14:41:10;7.22;;;3.40;;
28176;SDS011;15461;41.652;9.378;2023-07-02T14:43:36;6.97;;;3.42;;
28176;SDS011;15461;41.652;9.378;2023-07-02T14:46:03;9.60;;;3.47;;